Time;durP1;ratioP1;P1;durP2;ratioP2;P2;SDS_P1;SDS_P2;PMS_P1;PMS_P2;Temp;Humidity;BMP_temperature;BMP_pressure;BME280_temperature;BME280_humidity;BME280_pressure;Samples;Min_cycle;Max_cycle;Signal;HPM_P1;HPM_P2
2024/01/27 00:00:52;;;;;;;19.50;3.90;;;6.10;99.90;;;;;;5022386;28;20222;-48
2024/01/27 00:03:18;;;;;;;23.37;4.03;;;6.10;99.90;;;;;;5036258;28;20907;-52
2024/01/27 00:05:46;;;;;;;27.13;4.63;;;6.10;99.90;;;;;;5009238;28;20200;-51
2024/01/27 00:08:13;;;;;;;24.60;3.83;;;6.10;99.90;;;;;;5032374;28;20656;-52
2024/01/27 00:10:40;;;;;;;17.23;3.20;;;6.10;99.90;;;;;;5036127;28;20208;-50
2024/01/27 00:13:08;;;;;;;27.17;4.43;;;6.10;99.90;;;;;;5031296;28;20714;-52
2024/01/27 00:15:35;;;;;;;21.30;3.97;;;6.20;99.90;;;;;;5018857;28;20248;-47
2024/01/27 00:18:02;;;;;;;20.87;4.47;;;6.20;99.90;;;;;;5029239;28;20191;-50
2024/01/27 00:20:29;;;;;;;16.93;3.30;;;6.20;99.90;;;;;;5004707;28;20219;-48
2024/01/27 00:22:55;;;;;;;25.73;4.50;;;6.20;99.90;;;;;;5034795;28;21535;-50
2024/01/27 00:25:22;;;;;;;24.07;3.90;;;6.20;99.90;;;;;;5032486;28;20203;-50
2024/01/27 00:27:49;;;;;;;17.70;3.47;;;6.20;99.90;;;;;;5026824;28;20276;-47
2024/01/27 00:30:18;;;;;;;15.73;2.53;;;6.20;99.90;;;;;;5016383;28;20341;-49
2024/01/27 00:32:45;;;;;;;27.23;4.37;;;6.20;99.90;;;;;;5022618;28;20259;-48
2024/01/27 00:35:14;;;;;;;16.77;3.40;;;6.20;99.90;;;;;;4998500;28;20224;-53
2024/01/27 00:37:41;;;;;;;13.67;3.57;;;6.20;99.90;;;;;;5032119;28;21540;-48
2024/01/27 00:40:09;;;;;;;17.97;3.03;;;6.20;99.90;;;;;;5025817;28;20239;-52
2024/01/27 00:42:36;;;;;;;17.80;3.57;;;6.20;99.90;;;;;;5027493;28;20249;-50
2024/01/27 00:45:05;;;;;;;24.23;4.43;;;6.20;99.90;;;;;;5039218;28;20284;-50
2024/01/27 00:47:34;;;;;;;19.20;3.70;;;6.20;99.90;;;;;;5015135;28;20208;-50
2024/01/27 00:50:01;;;;;;;18.37;2.97;;;6.20;99.90;;;;;;5031594;28;20381;-50
2024/01/27 00:52:27;;;;;;;12.60;3.60;;;6.20;99.90;;;;;;4998122;28;20297;-47
2024/01/27 00:54:54;;;;;;;29.13;4.67;;;6.20;99.90;;;;;;5034290;28;20234;-53
2024/01/27 00:57:21;;;;;;;16.40;4.20;;;6.20;99.90;;;;;;5029153;28;20184;-51
2024/01/27 00:59:48;;;;;;;21.13;3.37;;;6.20;99.90;;;;;;5027758;28;20203;-49
2024/01/27 01:02:15;;;;;;;22.50;3.90;;;6.20;99.90;;;;;;5020114;28;20336;-50
2024/01/27 01:04:43;;;;;;;25.10;4.40;;;6.20;99.90;;;;;;5037596;28;20276;-53
2024/01/27 01:07:10;;;;;;;26.47;3.50;;;6.20;99.90;;;;;;5004985;28;20289;-51
2024/01/27 01:09:37;;;;;;;22.70;3.27;;;6.20;99.90;;;;;;5038859;28;20191;-51
2024/01/27 01:12:04;;;;;;;16.70;3.27;;;6.20;99.90;;;;;;5039124;28;20223;-49
2024/01/27 01:14:32;;;;;;;25.53;3.97;;;6.20;99.90;;;;;;5034455;28;20620;-49
2024/01/27 01:16:59;;;;;;;25.20;4.27;;;6.20;99.90;;;;;;5034961;28;20218;-50
2024/01/27 01:19:26;;;;;;;22.57;4.60;;;6.20;99.90;;;;;;5026812;28;20222;-51
2024/01/27 01:21:54;;;;;;;13.60;3.93;;;6.20;99.90;;;;;;5027281;28;20231;-51
2024/01/27 01:24:21;;;;;;;23.00;3.87;;;6.20;99.90;;;;;;5031037;28;20227;-51
2024/01/27 01:26:48;;;;;;;19.47;3.97;;;6.20;99.90;;;;;;5040697;28;20202;-52
2024/01/27 01:29:15;;;;;;;18.67;4.20;;;6.20;99.90;;;;;;5037496;28;20195;-49
2024/01/27 01:31:43;;;;;;;25.77;3.50;;;6.20;99.90;;;;;;5033852;28;20219;-50
2024/01/27 01:34:10;;;;;;;21.53;3.43;;;6.20;99.90;;;;;;5030945;28;20194;-50
2024/01/27 01:36:37;;;;;;;15.27;3.93;;;6.20;99.90;;;;;;5042389;28;20675;-47
2024/01/27 01:39:05;;;;;;;16.43;3.53;;;6.20;99.90;;;;;;5020953;28;20207;-50
2024/01/27 01:41:32;;;;;;;17.00;4.00;;;6.20;99.90;;;;;;5036884;28;20712;-49
2024/01/27 01:44:00;;;;;;;22.50;4.33;;;6.30;99.90;;;;;;5033948;28;20624;-50
2024/01/27 01:46:27;;;;;;;28.13;4.23;;;6.30;99.90;;;;;;5029580;28;20682;-52
2024/01/27 01:48:54;;;;;;;16.27;3.33;;;6.30;99.90;;;;;;5027104;28;20226;-53
2024/01/27 01:51:23;;;;;;;18.60;4.10;;;6.30;99.90;;;;;;5034517;28;21015;-50
2024/01/27 01:53:50;;;;;;;21.77;4.37;;;6.30;99.90;;;;;;5003743;28;20940;-48
2024/01/27 01:56:18;;;;;;;15.27;3.40;;;6.30;99.90;;;;;;5033469;28;21033;-51
2024/01/27 01:58:46;;;;;;;22.60;4.30;;;6.30;99.90;;;;;;5035600;28;20203;-51
2024/01/27 02:01:12;;;;;;;18.53;3.33;;;6.30;99.90;;;;;;5033757;28;20214;-51
2024/01/27 02:03:39;;;;;;;16.33;3.40;;;6.30;99.90;;;;;;5027441;28;20234;-47
2024/01/27 02:06:07;;;;;;;17.73;3.30;;;6.30;99.90;;;;;;5020587;28;20292;-50
2024/01/27 02:08:34;;;;;;;18.67;4.40;;;6.30;99.90;;;;;;5008446;28;20706;-50
2024/01/27 02:11:02;;;;;;;22.77;5.23;;;6.30;99.90;;;;;;5032569;28;20242;-50
2024/01/27 02:13:31;;;;;;;22.07;3.27;;;6.30;99.90;;;;;;5037699;28;20202;-50
2024/01/27 02:15:57;;;;;;;23.17;4.03;;;6.40;99.90;;;;;;5035085;28;20199;-51
2024/01/27 02:18:24;;;;;;;21.23;4.53;;;6.30;99.90;;;;;;5027857;28;20208;-50
2024/01/27 02:20:51;;;;;;;18.23;3.87;;;6.30;99.90;;;;;;5033621;28;20226;-55
2024/01/27 02:23:18;;;;;;;19.87;4.00;;;6.30;99.90;;;;;;4997244;28;20240;-47
2024/01/27 02:25:46;;;;;;;20.23;3.77;;;6.30;99.90;;;;;;5034977;28;20238;-51
2024/01/27 02:28:13;;;;;;;21.00;3.93;;;6.30;99.90;;;;;;5035365;28;20253;-47
2024/01/27 02:30:40;;;;;;;14.87;3.23;;;6.40;99.90;;;;;;5041003;28;20766;-51
2024/01/27 02:33:07;;;;;;;19.53;3.87;;;6.40;99.90;;;;;;5031124;28;20191;-49
2024/01/27 02:35:33;;;;;;;13.27;3.20;;;6.40;99.90;;;;;;5042880;28;20253;-50
2024/01/27 02:38:00;;;;;;;21.37;3.87;;;6.40;99.90;;;;;;5023607;28;20671;-52
2024/01/27 02:40:27;;;;;;;17.57;3.57;;;6.30;99.90;;;;;;5008722;28;20227;-50
2024/01/27 02:42:55;;;;;;;26.00;3.53;;;6.30;99.90;;;;;;5038593;28;20260;-52
2024/01/27 02:45:22;;;;;;;24.87;4.17;;;6.30;99.90;;;;;;5038647;28;20859;-52
2024/01/27 02:47:49;;;;;;;28.17;3.97;;;6.30;99.90;;;;;;5038488;28;20200;-49
2024/01/27 02:50:16;;;;;;;20.63;3.27;;;6.30;99.90;;;;;;5030153;28;20262;-53
2024/01/27 02:52:43;;;;;;;35.30;5.13;;;6.30;99.90;;;;;;5023964;28;20269;-53
2024/01/27 02:55:09;;;;;;;19.93;3.53;;;6.20;99.90;;;;;;5008528;28;20206;-50
2024/01/27 02:57:36;;;;;;;20.60;4.17;;;6.20;99.90;;;;;;5036190;28;20198;-47
2024/01/27 03:00:05;;;;;;;34.87;4.70;;;6.20;99.90;;;;;;5034562;28;20905;-47
2024/01/27 03:02:32;;;;;;;23.90;3.50;;;6.10;99.90;;;;;;5039746;28;20610;-48
2024/01/27 03:04:59;;;;;;;18.03;3.50;;;6.10;99.90;;;;;;5032579;28;20247;-51
2024/01/27 03:07:26;;;;;;;21.80;3.90;;;6.10;99.90;;;;;;5019252;28;20265;-52
2024/01/27 03:09:53;;;;;;;30.67;4.10;;;6.10;99.90;;;;;;5015504;28;20207;-51
2024/01/27 03:12:22;;;;;;;19.40;3.37;;;6.10;99.90;;;;;;5021971;28;20400;-50
2024/01/27 03:14:50;;;;;;;16.83;3.40;;;6.10;99.90;;;;;;5032837;28;20204;-52
2024/01/27 03:17:19;;;;;;;15.97;3.30;;;6.10;99.90;;;;;;5030843;28;20203;-49
2024/01/27 03:19:45;;;;;;;23.03;3.80;;;6.00;99.90;;;;;;5035623;28;20199;-51
2024/01/27 03:22:12;;;;;;;30.77;4.13;;;6.00;99.90;;;;;;5023849;28;20884;-51
2024/01/27 03:24:39;;;;;;;18.77;3.20;;;6.00;99.90;;;;;;5013994;28;20707;-52
2024/01/27 03:27:06;;;;;;;21.10;4.33;;;6.00;99.90;;;;;;5011960;28;20210;-51
2024/01/27 03:29:32;;;;;;;23.77;3.77;;;6.00;99.90;;;;;;5037305;28;20250;-49
2024/01/27 03:31:59;;;;;;;22.37;2.90;;;5.90;99.90;;;;;;5035467;28;20277;-51
2024/01/27 03:34:28;;;;;;;17.53;3.13;;;5.90;99.90;;;;;;5037098;28;20234;-51
2024/01/27 03:36:55;;;;;;;18.10;4.20;;;5.90;99.90;;;;;;5033104;28;20207;-53
2024/01/27 03:39:22;;;;;;;19.47;3.57;;;5.90;99.90;;;;;;5021035;28;20265;-52
2024/01/27 03:41:48;;;;;;;18.13;3.07;;;5.90;99.90;;;;;;5021937;28;20211;-53
2024/01/27 03:44:15;;;;;;;19.60;3.33;;;5.90;99.90;;;;;;5018712;28;20941;-48
2024/01/27 03:46:42;;;;;;;20.87;3.50;;;5.90;99.90;;;;;;5031804;28;20195;-49
2024/01/27 03:49:09;;;;;;;20.13;4.07;;;5.90;99.90;;;;;;5028397;28;20276;-50
2024/01/27 03:51:37;;;;;;;18.03;3.37;;;5.90;99.90;;;;;;5032408;28;20216;-49
2024/01/27 03:54:04;;;;;;;16.70;3.23;;;5.80;99.90;;;;;;5009072;28;20960;-52
2024/01/27 03:56:31;;;;;;;15.00;3.23;;;5.90;99.90;;;;;;5036072;28;20277;-49
2024/01/27 03:58:58;;;;;;;27.20;3.80;;;5.80;99.90;;;;;;5006662;28;20204;-52
2024/01/27 04:01:24;;;;;;;27.03;3.20;;;5.80;99.90;;;;;;5039966;28;20219;-49
2024/01/27 04:03:51;;;;;;;21.40;3.33;;;5.80;99.90;;;;;;5039193;28;20203;-52
2024/01/27 04:06:18;;;;;;;23.67;3.67;;;5.80;99.90;;;;;;5039733;28;20835;-49
2024/01/27 04:08:46;;;;;;;21.50;3.10;;;5.80;99.90;;;;;;5031131;28;20284;-51
2024/01/27 04:11:21;;;;;;;19.73;3.87;;;5.70;99.90;;;;;;5012121;28;20306;-51
2024/01/27 04:13:48;;;;;;;21.53;4.03;;;5.80;99.90;;;;;;5006629;28;20199;-50
2024/01/27 04:16:15;;;;;;;24.50;3.63;;;5.80;99.90;;;;;;5025720;28;20175;-49
2024/01/27 04:18:43;;;;;;;26.30;3.53;;;5.70;99.90;;;;;;5039224;28;20199;-50
2024/01/27 04:21:10;;;;;;;30.50;5.03;;;5.70;99.90;;;;;;5035665;28;20313;-53
2024/01/27 04:23:36;;;;;;;33.77;5.30;;;5.70;99.90;;;;;;5024376;28;20207;-49
2024/01/27 04:26:06;;;;;;;20.90;3.60;;;5.70;99.90;;;;;;5012123;28;20293;-53
2024/01/27 04:28:33;;;;;;;19.80;3.67;;;5.70;99.90;;;;;;5006306;28;20206;-48
2024/01/27 04:31:00;;;;;;;23.87;3.97;;;5.70;99.90;;;;;;5022937;28;20224;-50
2024/01/27 04:33:27;;;;;;;19.70;4.57;;;5.70;99.90;;;;;;5027404;28;20246;-51
2024/01/27 04:35:54;;;;;;;17.30;3.60;;;5.70;99.90;;;;;;5027560;28;20192;-51
2024/01/27 04:38:21;;;;;;;14.83;3.30;;;5.70;99.90;;;;;;5028344;28;20187;-50
2024/01/27 04:40:49;;;;;;;25.23;4.27;;;5.70;99.90;;;;;;5002139;28;20334;-51
2024/01/27 04:43:17;;;;;;;16.93;3.30;;;5.70;99.90;;;;;;5029912;28;20721;-49
2024/01/27 04:45:44;;;;;;;21.57;3.20;;;5.70;99.90;;;;;;5004203;28;21048;-48
2024/01/27 04:48:11;;;;;;;22.47;3.97;;;5.70;99.90;;;;;;5035483;28;20187;-51
2024/01/27 04:50:38;;;;;;;27.37;4.07;;;5.70;99.90;;;;;;5029721;28;20270;-51
2024/01/27 04:53:05;;;;;;;20.30;3.57;;;5.70;99.90;;;;;;5036154;28;20196;-48
2024/01/27 04:55:32;;;;;;;24.17;4.30;;;5.70;99.90;;;;;;5021518;28;20235;-49
2024/01/27 04:57:59;;;;;;;22.93;3.80;;;5.60;99.90;;;;;;5013744;28;20842;-48
2024/01/27 05:00:28;;;;;;;18.97;3.40;;;5.60;99.90;;;;;;5006028;28;20223;-51
2024/01/27 05:02:55;;;;;;;17.80;3.90;;;5.60;99.90;;;;;;5028896;28;20203;-51
2024/01/27 05:05:22;;;;;;;21.77;3.17;;;5.60;99.90;;;;;;5028486;28;20314;-52
2024/01/27 05:07:49;;;;;;;19.93;4.43;;;5.60;99.90;;;;;;5026454;28;20196;-49
2024/01/27 05:10:17;;;;;;;20.77;4.07;;;5.60;99.90;;;;;;5024361;28;20223;-52
2024/01/27 05:12:43;;;;;;;24.17;4.47;;;5.60;99.90;;;;;;5004236;28;20208;-49
2024/01/27 05:15:11;;;;;;;20.20;3.67;;;5.50;99.90;;;;;;5023812;28;20269;-46
2024/01/27 05:17:39;;;;;;;19.43;3.60;;;5.50;99.90;;;;;;4997806;28;20208;-48
2024/01/27 05:20:08;;;;;;;29.53;4.60;;;5.50;99.90;;;;;;5025701;28;20284;-47
2024/01/27 05:22:34;;;;;;;16.07;3.30;;;5.60;99.90;;;;;;5027584;28;20190;-50
2024/01/27 05:25:02;;;;;;;25.13;3.80;;;5.50;99.90;;;;;;5040182;28;20216;-48
2024/01/27 05:27:28;;;;;;;24.43;4.37;;;5.50;99.90;;;;;;5023594;28;21849;-49
2024/01/27 05:29:56;;;;;;;16.33;3.23;;;5.50;99.90;;;;;;5037932;28;20203;-49
2024/01/27 05:32:23;;;;;;;18.77;4.27;;;5.50;99.90;;;;;;5002183;28;20366;-52
2024/01/27 05:34:51;;;;;;;22.73;3.53;;;5.50;99.90;;;;;;5037901;28;20265;-50
2024/01/27 05:37:18;;;;;;;16.63;3.00;;;5.40;99.90;;;;;;5036047;28;20664;-51
2024/01/27 05:39:45;;;;;;;22.73;4.10;;;5.30;99.90;;;;;;5027113;28;20307;-51
2024/01/27 05:42:13;;;;;;;18.70;3.80;;;5.30;99.90;;;;;;5039000;28;20301;-51
2024/01/27 05:44:40;;;;;;;18.03;3.60;;;5.30;99.90;;;;;;5034226;28;20256;-47
2024/01/27 05:47:07;;;;;;;15.83;3.47;;;5.30;99.90;;;;;;5011568;28;20302;-50
2024/01/27 05:49:34;;;;;;;18.13;3.50;;;5.30;99.90;;;;;;5036017;28;20429;-52
2024/01/27 05:52:02;;;;;;;18.80;4.13;;;5.30;99.90;;;;;;5039640;28;20211;-48
2024/01/27 05:54:29;;;;;;;23.90;3.37;;;5.30;99.90;;;;;;5034005;28;20192;-48
2024/01/27 05:56:55;;;;;;;14.87;3.17;;;5.30;99.90;;;;;;5037821;28;20206;-47
2024/01/27 05:59:22;;;;;;;22.60;3.20;;;5.20;99.90;;;;;;5013989;28;20204;-53
2024/01/27 06:01:49;;;;;;;13.40;3.00;;;5.20;99.90;;;;;;5033681;28;20764;-50
2024/01/27 06:04:16;;;;;;;26.37;3.97;;;5.20;99.90;;;;;;5002496;28;20203;-51
2024/01/27 06:06:43;;;;;;;19.13;3.93;;;5.10;99.90;;;;;;5031375;28;20289;-48
2024/01/27 06:09:11;;;;;;;12.90;3.37;;;5.00;99.90;;;;;;5033212;28;20274;-48
2024/01/27 06:11:38;;;;;;;23.10;3.27;;;5.00;99.90;;;;;;5027464;28;20303;-50
2024/01/27 06:14:06;;;;;;;17.07;3.97;;;5.00;99.90;;;;;;5029781;28;20205;-51
2024/01/27 06:16:34;;;;;;;23.93;3.50;;;5.00;99.90;;;;;;5016141;28;20187;-48
2024/01/27 06:19:01;;;;;;;19.43;3.03;;;5.00;99.90;;;;;;5009492;28;20743;-48
2024/01/27 06:21:28;;;;;;;17.70;3.17;;;5.00;99.90;;;;;;5018259;28;20216;-51
2024/01/27 06:23:55;;;;;;;22.13;3.70;;;5.00;99.90;;;;;;5036631;28;20238;-48
2024/01/27 06:26:23;;;;;;;13.50;3.20;;;4.90;99.90;;;;;;5035007;28;20223;-49
2024/01/27 06:28:50;;;;;;;19.50;3.47;;;4.90;99.90;;;;;;5038740;28;20216;-50
2024/01/27 06:31:17;;;;;;;19.77;3.50;;;4.90;99.90;;;;;;5018211;28;20215;-53
2024/01/27 06:33:44;;;;;;;20.33;3.27;;;4.90;99.90;;;;;;5010380;28;20885;-49
2024/01/27 06:36:10;;;;;;;22.73;3.60;;;4.80;99.90;;;;;;5033608;28;20290;-53
2024/01/27 06:38:38;;;;;;;16.70;3.90;;;4.80;99.90;;;;;;5040294;28;20253;-49
2024/01/27 06:41:05;;;;;;;27.77;4.67;;;4.80;99.90;;;;;;5042945;28;20204;-48
2024/01/27 06:43:33;;;;;;;13.40;3.10;;;4.80;99.90;;;;;;5036179;28;20948;-48
2024/01/27 06:46:00;;;;;;;23.13;3.63;;;4.70;99.90;;;;;;5027704;28;20285;-49
2024/01/27 06:48:27;;;;;;;19.90;3.57;;;4.60;99.90;;;;;;5010089;28;20250;-48
2024/01/27 06:50:54;;;;;;;18.50;3.20;;;4.60;99.90;;;;;;5045657;28;20227;-49
2024/01/27 06:53:21;;;;;;;16.77;3.97;;;4.50;99.90;;;;;;5036839;28;20199;-53
2024/01/27 06:55:48;;;;;;;22.37;3.43;;;4.50;99.90;;;;;;5036875;28;20192;-49
2024/01/27 06:58:14;;;;;;;15.27;3.63;;;4.50;99.90;;;;;;5036686;28;20601;-53
2024/01/27 07:00:44;;;;;;;16.63;3.30;;;4.40;99.90;;;;;;5021655;28;20325;-48
2024/01/27 07:03:11;;;;;;;21.27;4.10;;;4.40;99.90;;;;;;5026000;28;20206;-51
2024/01/27 07:05:40;;;;;;;22.47;4.13;;;4.40;99.90;;;;;;5012247;28;20302;-48
2024/01/27 07:08:07;;;;;;;21.03;3.17;;;4.30;99.90;;;;;;5036298;28;20195;-53
2024/01/27 07:10:34;;;;;;;25.77;4.07;;;4.30;99.90;;;;;;5030586;28;20216;-48
2024/01/27 07:13:01;;;;;;;18.07;3.80;;;4.30;99.90;;;;;;5031637;28;20200;-47
2024/01/27 07:15:28;;;;;;;22.00;4.43;;;4.20;99.90;;;;;;5024684;28;20184;-49
2024/01/27 07:17:56;;;;;;;21.37;3.10;;;4.20;99.90;;;;;;5023219;28;20221;-46
2024/01/27 07:20:24;;;;;;;21.67;3.50;;;4.20;99.90;;;;;;4999773;28;20781;-51
2024/01/27 07:22:51;;;;;;;15.50;3.10;;;4.20;99.90;;;;;;5032456;28;20226;-45
2024/01/27 07:25:18;;;;;;;17.97;3.07;;;4.10;99.90;;;;;;5029348;28;20216;-52
2024/01/27 07:27:46;;;;;;;29.10;3.63;;;4.20;99.90;;;;;;5023621;28;20192;-50
2024/01/27 07:30:14;;;;;;;27.00;3.30;;;4.10;99.90;;;;;;5026374;28;21454;-46
2024/01/27 07:32:41;;;;;;;17.70;2.70;;;4.10;99.90;;;;;;5020907;28;20211;-47
2024/01/27 07:35:09;;;;;;;26.27;3.17;;;4.10;99.90;;;;;;5001884;28;20229;-45
2024/01/27 07:37:36;;;;;;;19.97;3.50;;;4.10;99.90;;;;;;5034350;28;20208;-52
2024/01/27 07:40:03;;;;;;;24.93;3.30;;;4.10;99.90;;;;;;5029526;28;20733;-49
2024/01/27 07:42:30;;;;;;;16.13;3.83;;;4.10;99.90;;;;;;5046826;28;20203;-52
2024/01/27 07:44:57;;;;;;;19.90;2.97;;;4.10;99.90;;;;;;5036470;28;20888;-46
2024/01/27 07:47:24;;;;;;;22.40;3.47;;;4.10;99.90;;;;;;5032737;28;20196;-47
2024/01/27 07:49:51;;;;;;;16.73;3.30;;;4.10;99.90;;;;;;4987283;28;20222;-50
2024/01/27 07:52:19;;;;;;;16.73;3.10;;;4.20;99.90;;;;;;5041582;28;20524;-48
2024/01/27 07:54:46;;;;;;;25.23;4.13;;;4.20;99.90;;;;;;5035836;28;20196;-47
2024/01/27 07:57:13;;;;;;;9.90;2.03;;;4.20;99.90;;;;;;5032590;28;20195;-50
2024/01/27 07:59:39;;;;;;;13.50;3.23;;;4.20;99.90;;;;;;5034850;28;20198;-54
2024/01/27 08:02:06;;;;;;;22.97;2.90;;;4.20;99.90;;;;;;5025462;28;20239;-47
2024/01/27 08:04:34;;;;;;;14.40;2.90;;;4.30;99.90;;;;;;5025418;28;20249;-53
2024/01/27 08:07:05;;;;;;;13.40;3.17;;;4.30;99.90;;;;;;5000858;28;20966;-47
2024/01/27 08:09:34;;;;;;;15.50;2.53;;;4.30;99.90;;;;;;5026586;28;20204;-51
2024/01/27 08:12:01;;;;;;;14.57;3.93;;;4.30;99.90;;;;;;5021173;28;20316;-48
2024/01/27 08:14:29;;;;;;;16.60;3.43;;;4.30;99.90;;;;;;5018741;28;20196;-52
2024/01/27 08:16:56;;;;;;;18.23;4.10;;;4.30;99.90;;;;;;5026915;28;20290;-47
2024/01/27 08:19:24;;;;;;;13.07;2.40;;;4.40;99.90;;;;;;5016586;28;20208;-49
2024/01/27 08:21:51;;;;;;;8.87;2.53;;;4.40;99.90;;;;;;4988645;28;20836;-49
2024/01/27 08:24:18;;;;;;;16.27;3.20;;;4.40;99.90;;;;;;5047029;28;20195;-46
2024/01/27 08:26:48;;;;;;;19.17;3.63;;;4.40;99.90;;;;;;5019074;28;20218;-46
2024/01/27 08:29:15;;;;;;;26.63;3.40;;;4.40;99.90;;;;;;5032202;28;20245;-46
2024/01/27 08:31:42;;;;;;;18.17;3.63;;;4.50;99.90;;;;;;5026561;28;20310;-48
2024/01/27 08:34:09;;;;;;;19.30;2.97;;;4.50;99.90;;;;;;5032844;28;20308;-45
2024/01/27 08:36:37;;;;;;;16.27;2.73;;;4.50;99.90;;;;;;5002181;28;20199;-50
2024/01/27 08:39:04;;;;;;;16.90;3.10;;;4.60;99.90;;;;;;5021068;28;20293;-45
2024/01/27 08:41:31;;;;;;;16.17;2.83;;;4.60;99.90;;;;;;5024590;28;20273;-48
2024/01/27 08:43:59;;;;;;;12.20;2.43;;;4.60;99.90;;;;;;5038298;28;20202;-45
2024/01/27 08:46:26;;;;;;;12.57;3.20;;;4.60;99.90;;;;;;5025816;28;20251;-51
2024/01/27 08:48:52;;;;;;;17.77;2.87;;;4.70;99.90;;;;;;5025695;28;20204;-45
2024/01/27 08:51:19;;;;;;;20.07;3.33;;;4.60;99.90;;;;;;5023422;28;20277;-45
2024/01/27 08:53:48;;;;;;;14.30;3.27;;;4.60;99.90;;;;;;5011211;28;20194;-45
2024/01/27 08:56:15;;;;;;;12.63;3.27;;;4.70;99.90;;;;;;5029328;28;20195;-45
2024/01/27 08:58:42;;;;;;;18.17;3.00;;;4.70;99.90;;;;;;5025765;28;20257;-45
2024/01/27 09:01:12;;;;;;;15.83;3.13;;;4.70;99.90;;;;;;5017836;28;20583;-45
2024/01/27 09:03:40;;;;;;;14.10;3.37;;;4.70;99.90;;;;;;5024841;28;20250;-46
2024/01/27 09:06:07;;;;;;;13.47;4.10;;;4.80;99.90;;;;;;5017610;28;20219;-48
2024/01/27 09:08:34;;;;;;;17.13;3.33;;;4.80;99.90;;;;;;5004987;28;20576;-48
2024/01/27 09:11:02;;;;;;;18.03;3.47;;;4.80;99.90;;;;;;5036906;28;20218;-48
2024/01/27 09:13:29;;;;;;;10.73;2.90;;;4.90;99.90;;;;;;5005517;28;20216;-50
2024/01/27 09:15:56;;;;;;;16.13;3.50;;;4.90;99.90;;;;;;5012443;28;20216;-49
2024/01/27 09:18:24;;;;;;;12.17;2.50;;;5.00;99.90;;;;;;5026646;28;20200;-51
2024/01/27 09:20:51;;;;;;;18.97;3.53;;;5.00;99.90;;;;;;5037167;28;20768;-48
2024/01/27 09:23:18;;;;;;;11.23;2.47;;;5.10;99.90;;;;;;5029387;28;20253;-52
2024/01/27 09:25:45;;;;;;;11.30;2.63;;;5.10;99.90;;;;;;5014122;28;20199;-47
2024/01/27 09:28:12;;;;;;;17.53;3.13;;;5.10;99.90;;;;;;5039845;28;20939;-48
2024/01/27 09:30:39;;;;;;;22.27;3.97;;;5.10;99.90;;;;;;5032048;28;20215;-46
2024/01/27 09:33:06;;;;;;;12.47;2.73;;;5.20;99.90;;;;;;5027691;28;20207;-47
2024/01/27 09:35:34;;;;;;;15.60;2.40;;;5.20;99.90;;;;;;5036396;28;20292;-47
2024/01/27 09:38:01;;;;;;;14.97;3.43;;;5.30;99.90;;;;;;5022824;28;20207;-46
2024/01/27 09:40:28;;;;;;;14.90;2.43;;;5.30;99.90;;;;;;5004271;28;20219;-52
2024/01/27 09:42:59;;;;;;;13.03;2.97;;;5.40;99.90;;;;;;5036356;28;20219;-47
2024/01/27 09:45:27;;;;;;;10.57;2.40;;;5.40;99.90;;;;;;5027285;28;20662;-51
2024/01/27 09:47:57;;;;;;;11.00;3.00;;;5.50;99.90;;;;;;5019730;28;20253;-51
2024/01/27 09:50:24;;;;;;;14.13;2.73;;;5.50;99.90;;;;;;5043651;28;20285;-46
2024/01/27 09:52:52;;;;;;;16.17;2.90;;;5.60;99.90;;;;;;5026054;28;20199;-52
2024/01/27 09:55:19;;;;;;;18.37;2.93;;;5.70;99.90;;;;;;5037233;28;20196;-48
2024/01/27 09:57:46;;;;;;;11.40;2.67;;;5.70;99.90;;;;;;5008709;28;20780;-51
2024/01/27 10:00:16;;;;;;;13.67;3.10;;;5.70;99.90;;;;;;5029770;28;20394;-46
2024/01/27 10:02:43;;;;;;;9.47;2.93;;;5.80;99.90;;;;;;5036187;28;20571;-51
2024/01/27 10:05:11;;;;;;;7.30;2.47;;;5.80;99.90;;;;;;5027668;28;20219;-51
2024/01/27 10:07:38;;;;;;;14.60;3.17;;;5.80;99.90;;;;;;5038157;28;20766;-52
2024/01/27 10:10:07;;;;;;;13.23;3.17;;;5.90;99.90;;;;;;5028721;28;20942;-46
2024/01/27 10:12:40;;;;;;;15.53;3.03;;;5.90;99.90;;;;;;5012319;28;20211;-50
2024/01/27 10:15:07;;;;;;;8.53;2.60;;;6.00;99.90;;;;;;5027419;28;20273;-47
2024/01/27 10:17:37;;;;;;;11.47;2.97;;;6.10;99.90;;;;;;5036057;28;20199;-52
2024/01/27 10:20:07;;;;;;;19.57;3.30;;;6.20;99.90;;;;;;5019411;28;20257;-47
2024/01/27 10:22:41;;;;;;;16.90;2.80;;;6.40;99.90;;;;;;5033807;28;20210;-51
2024/01/27 10:25:10;;;;;;;11.63;2.90;;;6.50;99.90;;;;;;5012747;28;20933;-47
2024/01/27 10:27:37;;;;;;;7.53;2.73;;;6.50;99.90;;;;;;5008983;28;20211;-51
2024/01/27 10:30:05;;;;;;;14.90;3.17;;;6.50;99.90;;;;;;5024333;28;20207;-47
2024/01/27 10:32:32;;;;;;;13.07;2.97;;;6.50;99.90;;;;;;5026530;28;20223;-51
2024/01/27 10:35:04;;;;;;;8.27;2.30;;;6.50;99.90;;;;;;5019498;28;20338;-46
2024/01/27 10:37:31;;;;;;;13.70;2.30;;;6.50;99.90;;;;;;5035756;28;20192;-49
2024/01/27 10:40:02;;;;;;;12.93;3.17;;;6.50;99.90;;;;;;5006079;28;24482;-48
2024/01/27 10:42:32;;;;;;;11.37;2.47;;;6.50;99.90;;;;;;5029395;28;20196;-52
2024/01/27 10:45:00;;;;;;;15.37;2.73;;;6.50;99.90;;;;;;5000757;28;23325;-46
2024/01/27 10:47:29;;;;;;;13.90;2.60;;;6.60;99.90;;;;;;5029024;28;20322;-47
2024/01/27 10:49:57;;;;;;;11.50;2.70;;;6.60;99.90;;;;;;5020937;28;20218;-46
2024/01/27 10:52:28;;;;;;;8.43;2.57;;;6.60;99.90;;;;;;5025240;28;20257;-47
2024/01/27 10:54:59;;;;;;;13.27;3.37;;;6.70;99.90;;;;;;5010265;28;20357;-49
2024/01/27 10:57:27;;;;;;;9.53;2.43;;;6.70;99.90;;;;;;5025430;28;20304;-49
2024/01/27 10:59:57;;;;;;;7.43;2.80;;;6.80;99.90;;;;;;4995887;28;20319;-55
2024/01/27 11:02:24;;;;;;;12.90;2.87;;;6.80;99.90;;;;;;5021813;28;20191;-51
2024/01/27 11:04:53;;;;;;;11.93;2.50;;;6.90;99.90;;;;;;5026300;28;20202;-49
2024/01/27 11:07:22;;;;;;;9.90;2.17;;;6.90;99.90;;;;;;5012868;28;20223;-49
2024/01/27 11:09:51;;;;;;;9.63;2.80;;;6.90;99.90;;;;;;5035780;28;20656;-53
2024/01/27 11:12:20;;;;;;;12.50;3.00;;;7.00;99.90;;;;;;5022049;28;20207;-51
2024/01/27 11:14:48;;;;;;;12.50;2.33;;;7.00;99.90;;;;;;5005312;28;20211;-51
2024/01/27 11:17:16;;;;;;;9.80;2.57;;;7.00;99.90;;;;;;5028420;28;20220;-50
2024/01/27 11:19:43;;;;;;;14.07;2.77;;;7.10;99.90;;;;;;5036198;28;20705;-53
2024/01/27 11:22:24;;;;;;;8.67;2.43;;;7.10;99.90;;;;;;5027808;28;20231;-50
2024/01/27 11:24:51;;;;;;;15.23;2.57;;;7.10;99.90;;;;;;5033072;28;20203;-53
2024/01/27 11:27:18;;;;;;;14.93;2.93;;;7.00;99.90;;;;;;5022359;28;20903;-52
2024/01/27 11:29:48;;;;;;;8.67;2.40;;;7.10;99.90;;;;;;5003907;28;20277;-51
2024/01/27 11:32:16;;;;;;;13.97;2.83;;;7.10;99.90;;;;;;5024532;28;20339;-52
2024/01/27 11:34:44;;;;;;;13.47;2.83;;;7.10;99.90;;;;;;5027837;28;20253;-49
2024/01/27 11:37:13;;;;;;;11.70;2.90;;;7.20;99.90;;;;;;5020590;28;20196;-50
2024/01/27 11:39:40;;;;;;;11.90;2.50;;;7.30;99.90;;;;;;5037200;28;20206;-49
2024/01/27 11:42:07;;;;;;;11.73;2.07;;;7.30;99.90;;;;;;5019871;28;20239;-51
2024/01/27 11:44:38;;;;;;;6.83;2.33;;;7.30;99.90;;;;;;5002778;28;20298;-49
2024/01/27 11:47:06;;;;;;;11.70;2.57;;;7.40;99.90;;;;;;5034441;28;20203;-51
2024/01/27 11:49:37;;;;;;;14.03;2.80;;;7.30;99.90;;;;;;5024111;28;21284;-50
2024/01/27 11:52:05;;;;;;;9.70;2.43;;;7.30;99.90;;;;;;5020121;28;20220;-48
2024/01/27 11:54:32;;;;;;;8.07;2.87;;;7.40;99.90;;;;;;5022307;28;20883;-50
2024/01/27 11:56:59;;;;;;;9.67;2.27;;;7.40;99.90;;;;;;5025682;28;20214;-49
2024/01/27 11:59:26;;;;;;;13.03;2.90;;;7.40;99.90;;;;;;5002714;28;20212;-49
2024/01/27 12:01:53;;;;;;;12.13;2.80;;;7.50;99.90;;;;;;5028852;28;20843;-49
2024/01/27 12:04:21;;;;;;;6.40;2.50;;;7.40;99.90;;;;;;5020134;28;20258;-51
2024/01/27 12:06:49;;;;;;;10.13;2.20;;;7.40;99.90;;;;;;5043796;28;20605;-48
2024/01/27 12:09:17;;;;;;;12.37;2.33;;;7.40;99.90;;;;;;5009078;28;20333;-48
2024/01/27 12:11:45;;;;;;;12.47;2.57;;;7.40;99.90;;;;;;5035808;28;20224;-52
2024/01/27 12:14:13;;;;;;;14.00;2.73;;;7.40;99.90;;;;;;5018197;28;20478;-49
2024/01/27 12:16:41;;;;;;;8.90;2.20;;;7.40;99.90;;;;;;4996814;28;20203;-53
2024/01/27 12:19:10;;;;;;;11.30;2.63;;;7.40;99.90;;;;;;5028959;28;20187;-50
2024/01/27 12:21:37;;;;;;;12.37;2.53;;;7.40;99.90;;;;;;5020925;28;20247;-53
2024/01/27 12:24:16;;;;;;;8.07;2.00;;;7.40;99.90;;;;;;5036444;28;20200;-50
2024/01/27 12:26:42;;;;;;;16.67;2.90;;;7.40;99.90;;;;;;5020872;28;20273;-51
2024/01/27 12:29:11;;;;;;;11.87;2.97;;;7.40;99.90;;;;;;5023809;28;20310;-50
2024/01/27 12:31:39;;;;;;;7.97;2.90;;;7.50;99.90;;;;;;5007004;28;20594;-52
2024/01/27 12:34:06;;;;;;;11.77;2.43;;;7.40;99.90;;;;;;5032876;28;20187;-48
2024/01/27 12:36:32;;;;;;;14.87;3.00;;;7.40;99.90;;;;;;5024510;28;20245;-52
2024/01/27 12:39:03;;;;;;;15.87;2.60;;;7.50;99.90;;;;;;5025027;28;20195;-50
2024/01/27 12:41:33;;;;;;;10.90;2.83;;;7.60;99.90;;;;;;5026751;28;20228;-51
2024/01/27 12:44:00;;;;;;;10.63;2.03;;;7.60;99.90;;;;;;4998023;28;20200;-49
2024/01/27 12:46:28;;;;;;;8.87;2.30;;;7.70;99.90;;;;;;5021922;28;20206;-52
2024/01/27 12:48:55;;;;;;;13.13;2.57;;;7.70;99.90;;;;;;5018483;28;20281;-48